createdAt,value
2022-10-31T00:04:50.698Z,10.70
2022-10-31T00:09:53.397Z,11.68
2022-10-31T00:14:55.599Z,11.50
2022-10-31T00:19:58.244Z,11.27
2022-10-31T00:25:00.441Z,10.75
2022-10-31T00:30:02.687Z,11.23
2022-10-31T00:35:05.293Z,10.43
2022-10-31T00:40:08.316Z,11.20
2022-10-31T00:45:12.151Z,12.05
2022-10-31T00:50:14.422Z,11.60
2022-10-31T00:55:16.861Z,12.73
2022-10-31T01:00:19.310Z,15.15
2022-10-31T01:05:21.957Z,14.88
2022-10-31T01:10:24.401Z,17.42
2022-10-31T01:15:26.746Z,16.98
2022-10-31T01:20:29.098Z,16.23
2022-10-31T01:25:31.294Z,15.95
2022-10-31T01:30:33.559Z,18.48
2022-10-31T01:35:35.781Z,19.15
2022-10-31T01:40:37.953Z,18.80
2022-10-31T01:45:40.258Z,18.08
2022-10-31T01:50:45.083Z,17.92
2022-10-31T01:55:48.349Z,17.42
2022-10-31T02:00:53.525Z,13.88
2022-10-31T02:05:57.692Z,14.30
2022-10-31T02:11:02.800Z,14.63
2022-10-31T02:16:05.387Z,14.98
2022-10-31T02:21:33.610Z,15.82
2022-10-31T02:26:59.448Z,15.30
2022-10-31T02:32:28.864Z,15.27
2022-10-31T02:37:43.940Z,15.75
2022-10-31T02:48:23.308Z,13.88
2022-10-31T02:53:25.601Z,11.80
2022-10-31T02:58:32.205Z,12.10
2022-10-31T03:03:43.475Z,12.43
2022-10-31T03:08:57.164Z,13.40
2022-10-31T03:14:03.224Z,13.02
2022-10-31T03:19:07.777Z,13.32
2022-10-31T03:24:12.153Z,12.93
2022-10-31T03:29:18.788Z,11.00
2022-10-31T03:34:22.204Z,10.00
2022-10-31T03:39:25.773Z,10.10
2022-10-31T03:44:30.961Z,10.68
2022-10-31T03:49:34.613Z,10.68
2022-10-31T03:54:48.615Z,10.23
2022-10-31T04:00:17.453Z,10.90
2022-10-31T04:05:21.450Z,10.63
2022-10-31T04:10:31.819Z,9.27
2022-10-31T04:15:37.443Z,9.10
2022-10-31T04:20:42.564Z,9.32
2022-10-31T04:25:44.772Z,9.40
2022-10-31T04:30:46.992Z,8.93
2022-10-31T04:35:49.282Z,9.85
2022-10-31T04:40:51.555Z,9.35
2022-10-31T04:45:53.798Z,9.93
2022-10-31T04:51:04.119Z,10.45
2022-10-31T04:56:06.906Z,10.45
2022-10-31T05:01:09.225Z,10.65
2022-10-31T05:06:11.824Z,11.68
2022-10-31T05:11:14.455Z,13.07
2022-10-31T05:16:16.688Z,12.02
2022-10-31T05:21:18.894Z,13.10
2022-10-31T05:26:21.105Z,16.85
2022-10-31T05:31:23.389Z,16.83
2022-10-31T05:36:25.565Z,27.65
2022-10-31T05:41:28.144Z,29.02
2022-10-31T05:46:31.631Z,25.15
2022-10-31T05:51:34.817Z,23.67
2022-10-31T05:56:37.212Z,23.95
2022-10-31T06:01:39.649Z,21.38
2022-10-31T06:06:42.155Z,19.15
2022-10-31T06:11:44.524Z,20.83
2022-10-31T06:16:46.966Z,19.73
2022-10-31T06:21:49.278Z,21.85
2022-10-31T06:26:51.683Z,23.05
2022-10-31T06:31:54.056Z,22.70
2022-10-31T06:36:56.237Z,22.42
2022-10-31T06:41:58.579Z,23.42
2022-10-31T06:47:01.183Z,26.58
2022-10-31T06:52:03.605Z,23.63
2022-10-31T06:57:05.897Z,20.85
2022-10-31T07:02:11.154Z,21.30
2022-10-31T07:07:13.456Z,22.33
2022-10-31T07:12:18.074Z,23.90
2022-10-31T07:17:20.304Z,25.75
2022-10-31T07:22:22.656Z,23.50
2022-10-31T07:27:24.992Z,25.17
2022-10-31T07:32:27.382Z,23.38
2022-10-31T07:37:29.743Z,21.02
2022-10-31T07:42:43.157Z,19.52
2022-10-31T07:47:53.331Z,20.35
2022-10-31T07:53:10.079Z,19.58
2022-10-31T07:58:14.684Z,20.33
2022-10-31T08:03:19.097Z,20.17
2022-10-31T08:08:21.362Z,21.00
2022-10-31T08:13:23.783Z,28.23
2022-10-31T08:18:26.157Z,28.17
2022-10-31T08:23:28.393Z,25.80
2022-10-31T08:28:30.708Z,25.55
2022-10-31T08:33:33.346Z,25.38
2022-10-31T08:38:35.550Z,23.27
2022-10-31T08:43:37.776Z,20.63
2022-10-31T08:48:40.557Z,18.50
2022-10-31T08:53:43.019Z,16.42
2022-10-31T08:58:45.345Z,15.80
2022-10-31T09:03:47.550Z,17.23
2022-10-31T09:08:49.958Z,15.98
2022-10-31T09:13:54.703Z,16.33
2022-10-31T09:18:56.925Z,19.65
2022-10-31T09:24:00.543Z,18.02
2022-10-31T09:29:03.400Z,18.50
2022-10-31T09:34:05.896Z,19.40
2022-10-31T09:39:09.166Z,19.98
2022-10-31T09:44:30.700Z,19.63
2022-10-31T09:50:10.106Z,16.25
2022-10-31T09:55:20.042Z,17.42
2022-10-31T10:00:23.891Z,16.83
2022-10-31T10:05:30.024Z,17.52
2022-10-31T10:11:24.513Z,17.70
2022-10-31T10:17:07.068Z,19.48
2022-10-31T10:22:30.832Z,18.23
2022-10-31T10:27:38.793Z,17.90
2022-10-31T10:32:52.102Z,14.98
2022-10-31T10:38:01.461Z,13.68
2022-10-31T10:48:42.590Z,15.13
2022-10-31T10:54:06.549Z,13.70
2022-10-31T10:59:19.908Z,13.35
2022-10-31T11:04:33.082Z,12.68
2022-10-31T11:09:37.717Z,12.73
2022-10-31T11:15:18.823Z,12.18
2022-10-31T11:20:21.156Z,11.25
2022-10-31T11:25:27.945Z,10.52
2022-10-31T11:30:31.499Z,12.23
2022-10-31T11:35:34.167Z,11.52
2022-10-31T11:40:36.615Z,11.60
2022-10-31T11:45:39.043Z,10.65
2022-10-31T11:50:43.712Z,11.30
2022-10-31T11:55:47.561Z,9.00
2022-10-31T12:00:55.951Z,8.15
2022-10-31T12:06:12.861Z,7.33
2022-10-31T12:11:43.112Z,7.70
2022-10-31T12:16:53.069Z,7.03
2022-10-31T12:22:01.016Z,6.82
2022-10-31T12:27:18.350Z,7.22
2022-10-31T12:32:30.981Z,5.70
2022-10-31T12:37:45.524Z,6.18
2022-10-31T12:43:00.836Z,4.90
2022-10-31T12:48:39.360Z,4.20
2022-10-31T12:54:07.038Z,4.07
2022-10-31T12:59:40.684Z,4.00
2022-10-31T13:05:06.601Z,3.67
2022-10-31T13:10:36.053Z,8.32
2022-10-31T13:15:59.205Z,4.20
2022-10-31T13:21:09.379Z,3.50
2022-10-31T13:26:17.677Z,3.50
2022-10-31T13:31:20.249Z,3.72
2022-10-31T13:36:43.579Z,3.78
2022-10-31T13:41:55.959Z,3.88
2022-10-31T13:46:59.721Z,3.58
2022-10-31T13:52:11.154Z,3.58
2022-10-31T13:57:33.096Z,4.07
2022-10-31T14:02:38.031Z,4.03
2022-10-31T14:07:45.437Z,4.10
2022-10-31T14:12:50.216Z,3.92
2022-10-31T14:18:01.055Z,4.45
2022-10-31T14:23:13.773Z,4.05
2022-10-31T14:28:36.538Z,3.60
2022-10-31T14:33:44.068Z,4.13
2022-10-31T14:38:58.952Z,3.90
2022-10-31T14:44:30.982Z,4.05
2022-10-31T14:50:07.391Z,3.80
2022-10-31T14:55:14.405Z,3.20
2022-10-31T15:00:22.504Z,3.83
2022-10-31T15:05:27.535Z,3.85
2022-10-31T15:10:38.147Z,2.75
2022-10-31T15:15:42.093Z,3.10
2022-10-31T15:20:46.455Z,2.40
2022-10-31T15:25:48.706Z,2.33
2022-10-31T15:31:01.360Z,2.75
2022-10-31T15:36:04.491Z,2.38
2022-10-31T15:41:32.507Z,2.92
2022-10-31T15:46:35.293Z,3.72
2022-10-31T15:51:39.398Z,2.92
2022-10-31T15:56:45.609Z,9.02
2022-10-31T16:02:02.911Z,4.28
2022-10-31T16:07:22.990Z,3.35
2022-10-31T16:12:30.857Z,4.38
2022-10-31T16:17:33.768Z,4.25
2022-10-31T16:22:41.147Z,4.03
2022-10-31T16:27:54.224Z,4.47
2022-10-31T16:33:02.932Z,5.78
2022-10-31T16:38:07.016Z,6.30
2022-10-31T16:43:15.421Z,7.18
2022-10-31T16:48:22.246Z,6.57
2022-10-31T16:53:24.649Z,5.82
2022-10-31T16:58:31.174Z,6.70
2022-10-31T17:03:33.618Z,5.80
2022-10-31T17:08:35.869Z,5.63
2022-10-31T17:13:38.082Z,4.97
2022-10-31T17:18:40.266Z,6.88
2022-10-31T17:23:44.848Z,8.40
2022-10-31T17:28:47.399Z,8.00
2022-10-31T17:33:50.509Z,8.77
2022-10-31T17:38:53.321Z,8.68
2022-10-31T17:43:57.029Z,12.82
2022-10-31T17:49:01.257Z,15.40
2022-10-31T17:54:03.630Z,10.52
2022-10-31T18:04:12.995Z,8.50
2022-10-31T18:09:15.194Z,9.88
2022-10-31T18:14:17.494Z,11.10
2022-10-31T18:19:19.730Z,10.25
2022-10-31T18:24:22.090Z,10.35
2022-10-31T18:29:24.550Z,10.05
2022-10-31T18:34:26.933Z,11.32
2022-10-31T18:39:29.141Z,9.70
2022-10-31T18:44:32.527Z,12.05
2022-10-31T18:49:37.124Z,12.35
2022-10-31T18:54:39.650Z,13.85
2022-10-31T18:59:42.221Z,11.38
2022-10-31T19:04:44.465Z,10.93
2022-10-31T19:09:46.828Z,11.27
2022-10-31T19:14:49.765Z,11.73
2022-10-31T19:19:52.169Z,12.98
2022-10-31T19:24:54.353Z,14.57
2022-10-31T19:29:56.573Z,15.30
2022-10-31T19:34:58.968Z,12.95
2022-10-31T19:40:01.252Z,12.30
2022-10-31T19:45:04.276Z,12.45
2022-10-31T19:50:07.019Z,12.88
2022-10-31T19:55:09.424Z,13.48
2022-10-31T20:00:13.183Z,13.18
2022-10-31T20:05:15.551Z,17.90
2022-10-31T20:10:18.108Z,22.52
2022-10-31T20:15:20.445Z,25.08
2022-10-31T20:20:22.937Z,24.58
2022-10-31T20:25:25.287Z,23.55
2022-10-31T20:30:28.327Z,23.15
2022-10-31T20:35:30.924Z,26.23
2022-10-31T20:40:33.917Z,26.35
2022-10-31T20:45:36.440Z,23.20
2022-10-31T20:50:40.656Z,21.35
2022-10-31T20:55:43.982Z,21.60
2022-10-31T21:00:46.350Z,23.20
2022-10-31T21:06:00.020Z,22.35
2022-10-31T21:11:09.736Z,20.73
2022-10-31T21:21:36.959Z,29.33
2022-10-31T21:26:42.738Z,21.15
2022-10-31T21:31:46.311Z,19.00
2022-10-31T21:36:49.099Z,18.52
2022-10-31T21:41:51.707Z,19.35
2022-10-31T21:46:57.143Z,19.05
2022-10-31T21:51:59.850Z,21.20
2022-10-31T21:57:03.961Z,20.88
2022-10-31T22:02:06.828Z,17.98
2022-10-31T22:07:09.664Z,18.23
2022-10-31T22:12:12.255Z,18.23
2022-10-31T22:17:14.755Z,19.77
2022-10-31T22:22:16.988Z,23.30
2022-10-31T22:27:19.350Z,23.20
2022-10-31T22:32:23.913Z,27.20
2022-10-31T22:37:26.262Z,29.02
2022-10-31T22:42:28.481Z,29.48
2022-10-31T22:47:31.198Z,28.90
2022-10-31T22:52:33.847Z,26.83
2022-10-31T22:57:36.175Z,28.25
2022-10-31T23:02:38.402Z,28.60
2022-10-31T23:07:41.007Z,28.92
2022-10-31T23:13:01.744Z,26.38
2022-10-31T23:18:04.393Z,26.25
2022-10-31T23:23:08.126Z,27.15
2022-10-31T23:28:10.310Z,25.65
2022-10-31T23:33:12.743Z,28.52
2022-10-31T23:38:15.038Z,28.90
2022-10-31T23:43:17.410Z,31.17
2022-10-31T23:48:19.840Z,29.65
2022-10-31T23:53:22.075Z,28.05
2022-10-31T23:58:24.487Z,29.00
